CheckWX is a tool to help pilots better visualize weather data.  It is not intended as a substitute for an official pre-flight weather briefing.

15:12:40 UTC

KBJI TAF
Bemidji Regional Airport
Bemidji, Minnesota, USA
KBJI 291732Z 2918/3018 34012G17KT P6SM BKN025 TEMPO 2918/2922 SCT025 FM292200 32011KT P6SM BKN035 FM300200 VRB04KT P6SM SKC

May-29@
18:00 UTC

May-29 @ 18:00 UTC

May-29@
22:00 UTC

May-29 @ 22:00 UTC

TAF KBJI 291732Z 2918/3018 34012G17KT P6SM BKN025

Expired

Wind
  • 340° at 12 KTS
  • {Gusting to 17 KTS
Cloud Levels
  • Broken at 2,500' AGL

May-29@
18:00 UTC

May-29 @ 18:00 UTC

May-29@
22:00 UTC

May-29 @ 22:00 UTC

TEMPO 2918/2922 SCT025

Expired

Cloud Levels
  • Scattered at 2,500' AGL

May-29@
22:00 UTC

May-29 @ 22:00 UTC

May-30@
02:00 UTC

May-30 @ 02:00 UTC

FM292200 32011KT P6SM BKN035

Expired

Wind
  • 320° at 11 KTS
Cloud Levels
  • Broken at 3,500' AGL

May-30@
02:00 UTC

May-30 @ 02:00 UTC

May-30@
18:00 UTC

May-30 @ 18:00 UTC

FM300200 VRB04KT P6SM SKC

From

From Standard forecast or significant change

Wind
  • Variable at 4 KTS
Cloud Levels
  • Clear skies